< < Back
Terminal Aerodrome Forecast


Current Version              Previous Versions:   1  2  3  4  5  6  7  8  9  

Terminal Aerodrome Forecast

867
FTUS42 KJAX 311000 AAA
TAFJAX
TAF AMD
KJAX 311051Z 3111/0106 00000KT 5SM BR SCT015 SCT250
     FM311300 15006KT P6SM SCT025 SCT070
     FM311900 12009KT P6SM VCSH SCT030 BKN070
     FM010100 14005KT P6SM FEW030 SCT070 SCT250=



Latest METAR

499
SAUS80 KWBC 311900
MTRJAX
METAR KJAX 311856Z 11012KT 10SM BKN060 BKN250 32/19 A2997 RMK AO2 SLP148
T03170189


USA.gov is the U.S. government's official web portal to all federal, state and local government web resources and services.